sensor_id;sensor_type;location;lat;lon;timestamp;P1;durP1;ratioP1;P2;durP2;ratioP2
56239;SDS011;42154;51.992;5.896;2022-12-17T00:02:20;44.28;;;25.65;;
56239;SDS011;42154;51.992;5.896;2022-12-17T00:05:04;46.15;;;28.33;;
56239;SDS011;42154;51.992;5.896;2022-12-17T00:07:54;44.80;;;28.02;;
56239;SDS011;42154;51.992;5.896;2022-12-17T00:10:42;44.42;;;27.63;;
56239;SDS011;42154;51.992;5.896;2022-12-17T00:13:26;44.95;;;27.40;;
56239;SDS011;42154;51.992;5.896;2022-12-17T00:16:11;44.83;;;26.30;;
56239;SDS011;42154;51.992;5.896;2022-12-17T00:18:55;48.88;;;27.98;;
56239;SDS011;42154;51.992;5.896;2022-12-17T00:21:39;43.97;;;27.38;;
56239;SDS011;42154;51.992;5.896;2022-12-17T00:24:24;49.90;;;27.95;;
56239;SDS011;42154;51.992;5.896;2022-12-17T00:27:08;46.55;;;26.90;;
56239;SDS011;42154;51.992;5.896;2022-12-17T00:29:52;46.47;;;28.08;;
56239;SDS011;42154;51.992;5.896;2022-12-17T00:32:36;43.55;;;26.58;;
56239;SDS011;42154;51.992;5.896;2022-12-17T00:35:21;41.88;;;24.98;;
56239;SDS011;42154;51.992;5.896;2022-12-17T00:38:05;49.30;;;27.55;;
56239;SDS011;42154;51.992;5.896;2022-12-17T00:40:50;51.67;;;31.48;;
56239;SDS011;42154;51.992;5.896;2022-12-17T00:43:35;48.65;;;28.65;;
56239;SDS011;42154;51.992;5.896;2022-12-17T00:46:30;48.85;;;28.65;;
56239;SDS011;42154;51.992;5.896;2022-12-17T00:49:15;47.53;;;28.48;;
56239;SDS011;42154;51.992;5.896;2022-12-17T00:51:59;49.00;;;29.85;;
56239;SDS011;42154;51.992;5.896;2022-12-17T00:54:43;54.47;;;29.25;;
56239;SDS011;42154;51.992;5.896;2022-12-17T00:57:28;50.38;;;28.50;;
56239;SDS011;42154;51.992;5.896;2022-12-17T01:00:13;52.53;;;29.63;;
56239;SDS011;42154;51.992;5.896;2022-12-17T01:03:08;44.25;;;26.80;;
56239;SDS011;42154;51.992;5.896;2022-12-17T01:05:54;48.13;;;28.20;;
56239;SDS011;42154;51.992;5.896;2022-12-17T01:08:39;50.70;;;27.45;;
56239;SDS011;42154;51.992;5.896;2022-12-17T01:11:23;48.88;;;28.33;;
56239;SDS011;42154;51.992;5.896;2022-12-17T01:14:07;47.75;;;29.52;;
56239;SDS011;42154;51.992;5.896;2022-12-17T01:16:52;49.85;;;28.70;;
56239;SDS011;42154;51.992;5.896;2022-12-17T01:19:36;43.45;;;25.67;;
56239;SDS011;42154;51.992;5.896;2022-12-17T01:22:20;45.80;;;27.13;;
56239;SDS011;42154;51.992;5.896;2022-12-17T01:25:05;47.53;;;28.13;;
56239;SDS011;42154;51.992;5.896;2022-12-17T01:27:50;44.17;;;26.85;;
56239;SDS011;42154;51.992;5.896;2022-12-17T01:30:35;47.40;;;27.95;;
56239;SDS011;42154;51.992;5.896;2022-12-17T01:33:19;47.28;;;28.23;;
56239;SDS011;42154;51.992;5.896;2022-12-17T01:36:04;49.80;;;29.13;;
56239;SDS011;42154;51.992;5.896;2022-12-17T01:38:48;49.50;;;28.80;;
56239;SDS011;42154;51.992;5.896;2022-12-17T01:41:33;44.97;;;27.23;;
56239;SDS011;42154;51.992;5.896;2022-12-17T01:47:37;48.92;;;27.77;;
56239;SDS011;42154;51.992;5.896;2022-12-17T01:50:26;45.45;;;26.17;;
56239;SDS011;42154;51.992;5.896;2022-12-17T01:53:14;42.60;;;26.80;;
56239;SDS011;42154;51.992;5.896;2022-12-17T01:56:01;45.03;;;26.67;;
56239;SDS011;42154;51.992;5.896;2022-12-17T01:58:46;44.10;;;26.20;;
56239;SDS011;42154;51.992;5.896;2022-12-17T02:01:30;45.15;;;25.70;;
56239;SDS011;42154;51.992;5.896;2022-12-17T02:04:15;46.83;;;26.63;;
56239;SDS011;42154;51.992;5.896;2022-12-17T02:07:06;43.85;;;25.80;;
56239;SDS011;42154;51.992;5.896;2022-12-17T02:13:15;49.67;;;27.23;;
56239;SDS011;42154;51.992;5.896;2022-12-17T02:22:38;48.03;;;26.80;;
56239;SDS011;42154;51.992;5.896;2022-12-17T02:25:38;48.58;;;26.60;;
56239;SDS011;42154;51.992;5.896;2022-12-17T02:28:31;52.15;;;27.95;;
56239;SDS011;42154;51.992;5.896;2022-12-17T02:31:17;54.80;;;29.67;;
56239;SDS011;42154;51.992;5.896;2022-12-17T02:34:03;49.85;;;28.73;;
56239;SDS011;42154;51.992;5.896;2022-12-17T02:36:48;47.88;;;27.83;;
56239;SDS011;42154;51.992;5.896;2022-12-17T02:39:33;47.97;;;28.60;;
56239;SDS011;42154;51.992;5.896;2022-12-17T02:42:17;51.10;;;28.67;;
56239;SDS011;42154;51.992;5.896;2022-12-17T02:45:03;45.95;;;26.38;;
56239;SDS011;42154;51.992;5.896;2022-12-17T02:47:49;50.45;;;29.70;;
56239;SDS011;42154;51.992;5.896;2022-12-17T02:50:35;48.78;;;28.00;;
56239;SDS011;42154;51.992;5.896;2022-12-17T02:53:21;47.83;;;28.65;;
56239;SDS011;42154;51.992;5.896;2022-12-17T02:56:05;51.35;;;28.38;;
56239;SDS011;42154;51.992;5.896;2022-12-17T02:58:49;49.70;;;26.67;;
56239;SDS011;42154;51.992;5.896;2022-12-17T03:01:34;51.10;;;28.77;;
56239;SDS011;42154;51.992;5.896;2022-12-17T03:04:18;48.20;;;27.50;;
56239;SDS011;42154;51.992;5.896;2022-12-17T03:07:04;54.83;;;31.60;;
56239;SDS011;42154;51.992;5.896;2022-12-17T03:09:48;53.50;;;29.88;;
56239;SDS011;42154;51.992;5.896;2022-12-17T03:12:39;50.63;;;28.27;;
56239;SDS011;42154;51.992;5.896;2022-12-17T03:15:23;52.15;;;29.75;;
56239;SDS011;42154;51.992;5.896;2022-12-17T03:18:21;52.50;;;29.70;;
56239;SDS011;42154;51.992;5.896;2022-12-17T03:21:05;48.05;;;27.58;;
56239;SDS011;42154;51.992;5.896;2022-12-17T03:23:50;48.30;;;28.23;;
56239;SDS011;42154;51.992;5.896;2022-12-17T03:26:35;52.92;;;28.98;;
56239;SDS011;42154;51.992;5.896;2022-12-17T03:29:19;50.97;;;29.48;;
56239;SDS011;42154;51.992;5.896;2022-12-17T03:32:03;49.72;;;27.92;;
56239;SDS011;42154;51.992;5.896;2022-12-17T03:34:47;52.85;;;28.80;;
56239;SDS011;42154;51.992;5.896;2022-12-17T03:37:32;53.70;;;30.95;;
56239;SDS011;42154;51.992;5.896;2022-12-17T03:40:16;51.83;;;30.42;;
56239;SDS011;42154;51.992;5.896;2022-12-17T03:43:06;48.47;;;28.25;;
56239;SDS011;42154;51.992;5.896;2022-12-17T03:45:52;40.05;;;22.60;;
56239;SDS011;42154;51.992;5.896;2022-12-17T03:48:37;55.55;;;29.38;;
56239;SDS011;42154;51.992;5.896;2022-12-17T03:51:21;51.50;;;28.20;;
56239;SDS011;42154;51.992;5.896;2022-12-17T03:54:05;56.42;;;31.67;;
56239;SDS011;42154;51.992;5.896;2022-12-17T03:56:50;56.83;;;31.45;;
56239;SDS011;42154;51.992;5.896;2022-12-17T03:59:34;57.38;;;29.98;;
56239;SDS011;42154;51.992;5.896;2022-12-17T04:02:18;52.83;;;28.73;;
56239;SDS011;42154;51.992;5.896;2022-12-17T04:05:03;52.92;;;28.88;;
56239;SDS011;42154;51.992;5.896;2022-12-17T04:07:48;50.33;;;27.33;;
56239;SDS011;42154;51.992;5.896;2022-12-17T04:10:32;54.38;;;29.83;;
56239;SDS011;42154;51.992;5.896;2022-12-17T04:13:17;51.97;;;28.02;;
56239;SDS011;42154;51.992;5.896;2022-12-17T04:16:01;50.28;;;28.27;;
56239;SDS011;42154;51.992;5.896;2022-12-17T04:18:46;50.67;;;27.73;;
56239;SDS011;42154;51.992;5.896;2022-12-17T04:21:30;47.13;;;25.75;;
56239;SDS011;42154;51.992;5.896;2022-12-17T04:24:14;52.85;;;28.55;;
56239;SDS011;42154;51.992;5.896;2022-12-17T04:26:59;52.75;;;28.88;;
56239;SDS011;42154;51.992;5.896;2022-12-17T04:29:43;53.75;;;28.98;;
56239;SDS011;42154;51.992;5.896;2022-12-17T04:32:27;49.47;;;26.10;;
56239;SDS011;42154;51.992;5.896;2022-12-17T04:35:12;50.35;;;27.50;;
56239;SDS011;42154;51.992;5.896;2022-12-17T04:37:56;53.10;;;28.67;;
56239;SDS011;42154;51.992;5.896;2022-12-17T04:40:41;53.35;;;28.95;;
56239;SDS011;42154;51.992;5.896;2022-12-17T04:43:25;52.67;;;29.73;;
56239;SDS011;42154;51.992;5.896;2022-12-17T04:46:10;53.75;;;28.73;;
56239;SDS011;42154;51.992;5.896;2022-12-17T04:48:54;60.78;;;33.00;;
56239;SDS011;42154;51.992;5.896;2022-12-17T04:51:38;59.28;;;32.22;;
56239;SDS011;42154;51.992;5.896;2022-12-17T04:54:22;56.95;;;29.88;;
56239;SDS011;42154;51.992;5.896;2022-12-17T04:57:07;56.88;;;30.40;;
56239;SDS011;42154;51.992;5.896;2022-12-17T05:00:11;64.40;;;34.17;;
56239;SDS011;42154;51.992;5.896;2022-12-17T05:03:02;55.55;;;30.58;;
56239;SDS011;42154;51.992;5.896;2022-12-17T05:05:47;58.10;;;31.15;;
56239;SDS011;42154;51.992;5.896;2022-12-17T05:08:31;55.78;;;30.63;;
56239;SDS011;42154;51.992;5.896;2022-12-17T05:11:16;61.65;;;34.45;;
56239;SDS011;42154;51.992;5.896;2022-12-17T05:14:00;56.60;;;31.90;;
56239;SDS011;42154;51.992;5.896;2022-12-17T05:16:45;62.58;;;33.28;;
56239;SDS011;42154;51.992;5.896;2022-12-17T05:19:29;57.60;;;31.42;;
56239;SDS011;42154;51.992;5.896;2022-12-17T05:22:14;59.80;;;32.80;;
56239;SDS011;42154;51.992;5.896;2022-12-17T05:24:58;59.75;;;30.77;;
56239;SDS011;42154;51.992;5.896;2022-12-17T05:27:44;56.95;;;30.85;;
56239;SDS011;42154;51.992;5.896;2022-12-17T05:30:29;59.60;;;32.53;;
56239;SDS011;42154;51.992;5.896;2022-12-17T05:33:13;60.88;;;32.67;;
56239;SDS011;42154;51.992;5.896;2022-12-17T05:36:01;55.38;;;31.67;;
56239;SDS011;42154;51.992;5.896;2022-12-17T05:38:46;60.53;;;32.60;;
56239;SDS011;42154;51.992;5.896;2022-12-17T05:41:31;59.70;;;33.28;;
56239;SDS011;42154;51.992;5.896;2022-12-17T05:44:15;52.63;;;29.98;;
56239;SDS011;42154;51.992;5.896;2022-12-17T05:47:00;60.03;;;31.63;;
56239;SDS011;42154;51.992;5.896;2022-12-17T05:49:44;59.60;;;32.65;;
56239;SDS011;42154;51.992;5.896;2022-12-17T05:52:28;59.70;;;32.35;;
56239;SDS011;42154;51.992;5.896;2022-12-17T05:55:13;63.05;;;34.28;;
56239;SDS011;42154;51.992;5.896;2022-12-17T05:58:04;59.17;;;32.42;;
56239;SDS011;42154;51.992;5.896;2022-12-17T06:00:55;62.03;;;33.55;;
56239;SDS011;42154;51.992;5.896;2022-12-17T06:03:41;64.45;;;33.83;;
56239;SDS011;42154;51.992;5.896;2022-12-17T06:06:25;60.67;;;31.88;;
56239;SDS011;42154;51.992;5.896;2022-12-17T06:09:09;56.47;;;32.17;;
56239;SDS011;42154;51.992;5.896;2022-12-17T06:11:54;57.67;;;32.63;;
56239;SDS011;42154;51.992;5.896;2022-12-17T06:14:39;59.67;;;32.30;;
56239;SDS011;42154;51.992;5.896;2022-12-17T06:17:23;59.38;;;33.17;;
56239;SDS011;42154;51.992;5.896;2022-12-17T06:20:08;61.63;;;34.67;;
56239;SDS011;42154;51.992;5.896;2022-12-17T06:23:06;60.03;;;33.75;;
56239;SDS011;42154;51.992;5.896;2022-12-17T06:25:53;62.17;;;34.10;;
56239;SDS011;42154;51.992;5.896;2022-12-17T06:28:39;57.53;;;33.67;;
56239;SDS011;42154;51.992;5.896;2022-12-17T06:31:24;55.03;;;31.42;;
56239;SDS011;42154;51.992;5.896;2022-12-17T06:34:08;62.22;;;32.08;;
56239;SDS011;42154;51.992;5.896;2022-12-17T06:36:52;63.03;;;34.15;;
56239;SDS011;42154;51.992;5.896;2022-12-17T06:39:37;62.38;;;34.45;;
56239;SDS011;42154;51.992;5.896;2022-12-17T06:42:21;59.40;;;32.17;;
56239;SDS011;42154;51.992;5.896;2022-12-17T06:45:05;63.97;;;34.88;;
56239;SDS011;42154;51.992;5.896;2022-12-17T06:47:50;64.95;;;33.67;;
56239;SDS011;42154;51.992;5.896;2022-12-17T06:50:35;64.80;;;36.25;;
56239;SDS011;42154;51.992;5.896;2022-12-17T06:53:19;64.05;;;34.70;;
56239;SDS011;42154;51.992;5.896;2022-12-17T06:56:03;63.83;;;32.88;;
56239;SDS011;42154;51.992;5.896;2022-12-17T06:58:48;57.58;;;32.08;;
56239;SDS011;42154;51.992;5.896;2022-12-17T07:01:32;69.30;;;36.72;;
56239;SDS011;42154;51.992;5.896;2022-12-17T07:04:17;68.97;;;35.75;;
56239;SDS011;42154;51.992;5.896;2022-12-17T07:07:01;62.65;;;33.83;;
56239;SDS011;42154;51.992;5.896;2022-12-17T07:09:46;58.95;;;33.13;;
56239;SDS011;42154;51.992;5.896;2022-12-17T07:12:30;64.65;;;33.17;;
56239;SDS011;42154;51.992;5.896;2022-12-17T07:15:14;64.15;;;34.67;;
56239;SDS011;42154;51.992;5.896;2022-12-17T07:18:00;62.63;;;34.85;;
56239;SDS011;42154;51.992;5.896;2022-12-17T07:20:46;67.47;;;35.53;;
56239;SDS011;42154;51.992;5.896;2022-12-17T07:23:31;63.63;;;34.70;;
56239;SDS011;42154;51.992;5.896;2022-12-17T07:26:16;61.22;;;33.60;;
56239;SDS011;42154;51.992;5.896;2022-12-17T07:29:01;61.42;;;33.45;;
56239;SDS011;42154;51.992;5.896;2022-12-17T07:31:45;58.63;;;31.85;;
56239;SDS011;42154;51.992;5.896;2022-12-17T07:34:29;60.38;;;32.03;;
56239;SDS011;42154;51.992;5.896;2022-12-17T07:37:14;57.17;;;31.73;;
56239;SDS011;42154;51.992;5.896;2022-12-17T07:39:58;51.53;;;29.33;;
56239;SDS011;42154;51.992;5.896;2022-12-17T07:42:42;55.10;;;29.55;;
56239;SDS011;42154;51.992;5.896;2022-12-17T07:45:27;54.97;;;29.65;;
56239;SDS011;42154;51.992;5.896;2022-12-17T07:48:11;56.33;;;30.90;;
56239;SDS011;42154;51.992;5.896;2022-12-17T07:50:55;58.47;;;31.40;;
56239;SDS011;42154;51.992;5.896;2022-12-17T07:53:40;55.50;;;30.05;;
56239;SDS011;42154;51.992;5.896;2022-12-17T07:56:24;63.13;;;32.47;;
56239;SDS011;42154;51.992;5.896;2022-12-17T07:59:10;66.85;;;36.08;;
56239;SDS011;42154;51.992;5.896;2022-12-17T08:01:54;59.20;;;32.65;;
56239;SDS011;42154;51.992;5.896;2022-12-17T08:04:39;61.03;;;34.40;;
56239;SDS011;42154;51.992;5.896;2022-12-17T08:07:23;62.15;;;33.58;;
56239;SDS011;42154;51.992;5.896;2022-12-17T08:10:08;66.88;;;34.75;;
56239;SDS011;42154;51.992;5.896;2022-12-17T08:12:56;65.32;;;33.85;;
56239;SDS011;42154;51.992;5.896;2022-12-17T08:15:47;64.72;;;33.33;;
56239;SDS011;42154;51.992;5.896;2022-12-17T08:18:31;76.18;;;38.53;;
56239;SDS011;42154;51.992;5.896;2022-12-17T08:21:16;70.38;;;37.15;;
56239;SDS011;42154;51.992;5.896;2022-12-17T08:24:01;77.00;;;38.13;;
56239;SDS011;42154;51.992;5.896;2022-12-17T08:26:45;66.70;;;34.63;;
56239;SDS011;42154;51.992;5.896;2022-12-17T08:29:29;66.95;;;35.30;;
56239;SDS011;42154;51.992;5.896;2022-12-17T08:32:14;65.72;;;35.63;;
56239;SDS011;42154;51.992;5.896;2022-12-17T08:34:58;65.30;;;34.42;;
56239;SDS011;42154;51.992;5.896;2022-12-17T08:37:43;70.90;;;36.55;;
56239;SDS011;42154;51.992;5.896;2022-12-17T08:40:27;67.43;;;33.03;;
56239;SDS011;42154;51.992;5.896;2022-12-17T08:43:11;70.38;;;36.85;;
56239;SDS011;42154;51.992;5.896;2022-12-17T08:45:56;64.57;;;35.15;;
56239;SDS011;42154;51.992;5.896;2022-12-17T08:48:40;67.35;;;36.83;;
56239;SDS011;42154;51.992;5.896;2022-12-17T08:51:25;63.67;;;34.53;;
56239;SDS011;42154;51.992;5.896;2022-12-17T08:54:10;78.65;;;39.38;;
56239;SDS011;42154;51.992;5.896;2022-12-17T08:56:54;69.00;;;36.75;;
56239;SDS011;42154;51.992;5.896;2022-12-17T08:59:38;68.50;;;35.80;;
56239;SDS011;42154;51.992;5.896;2022-12-17T09:02:23;64.32;;;34.33;;
56239;SDS011;42154;51.992;5.896;2022-12-17T09:05:07;68.15;;;36.33;;
56239;SDS011;42154;51.992;5.896;2022-12-17T09:08:03;71.13;;;36.88;;
56239;SDS011;42154;51.992;5.896;2022-12-17T09:10:49;74.75;;;36.33;;
56239;SDS011;42154;51.992;5.896;2022-12-17T09:13:33;73.95;;;36.08;;
56239;SDS011;42154;51.992;5.896;2022-12-17T09:16:18;68.43;;;35.03;;
56239;SDS011;42154;51.992;5.896;2022-12-17T09:19:04;69.60;;;37.22;;
56239;SDS011;42154;51.992;5.896;2022-12-17T09:21:49;74.40;;;36.60;;
56239;SDS011;42154;51.992;5.896;2022-12-17T09:24:33;68.07;;;34.50;;
56239;SDS011;42154;51.992;5.896;2022-12-17T09:27:17;72.85;;;36.33;;
56239;SDS011;42154;51.992;5.896;2022-12-17T09:30:02;70.15;;;36.53;;
56239;SDS011;42154;51.992;5.896;2022-12-17T09:32:47;70.05;;;37.67;;
56239;SDS011;42154;51.992;5.896;2022-12-17T09:35:31;67.88;;;36.72;;
56239;SDS011;42154;51.992;5.896;2022-12-17T09:38:16;72.45;;;37.30;;
56239;SDS011;42154;51.992;5.896;2022-12-17T09:41:04;69.25;;;35.92;;
56239;SDS011;42154;51.992;5.896;2022-12-17T09:47:21;68.00;;;36.38;;
56239;SDS011;42154;51.992;5.896;2022-12-17T09:50:17;70.20;;;37.03;;
56239;SDS011;42154;51.992;5.896;2022-12-17T09:53:16;75.63;;;38.40;;
56239;SDS011;42154;51.992;5.896;2022-12-17T09:56:22;74.57;;;37.92;;
56239;SDS011;42154;51.992;5.896;2022-12-17T09:59:22;71.05;;;36.45;;
56239;SDS011;42154;51.992;5.896;2022-12-17T10:02:14;69.13;;;35.85;;
56239;SDS011;42154;51.992;5.896;2022-12-17T10:05:11;71.95;;;37.95;;
56239;SDS011;42154;51.992;5.896;2022-12-17T10:07:58;74.73;;;39.20;;
56239;SDS011;42154;51.992;5.896;2022-12-17T10:10:44;69.65;;;36.28;;
56239;SDS011;42154;51.992;5.896;2022-12-17T10:13:29;69.80;;;36.50;;
56239;SDS011;42154;51.992;5.896;2022-12-17T10:22:18;75.05;;;39.20;;
56239;SDS011;42154;51.992;5.896;2022-12-17T10:25:08;74.20;;;38.03;;
56239;SDS011;42154;51.992;5.896;2022-12-17T10:28:05;65.95;;;34.92;;
56239;SDS011;42154;51.992;5.896;2022-12-17T10:30:53;71.43;;;37.08;;
56239;SDS011;42154;51.992;5.896;2022-12-17T10:33:38;70.80;;;35.28;;
56239;SDS011;42154;51.992;5.896;2022-12-17T10:36:24;71.00;;;36.58;;
56239;SDS011;42154;51.992;5.896;2022-12-17T10:39:16;73.93;;;38.63;;
56239;SDS011;42154;51.992;5.896;2022-12-17T10:42:16;70.93;;;37.47;;
56239;SDS011;42154;51.992;5.896;2022-12-17T10:45:20;72.00;;;37.50;;
56239;SDS011;42154;51.992;5.896;2022-12-17T10:48:18;75.05;;;38.05;;
56239;SDS011;42154;51.992;5.896;2022-12-17T10:51:18;70.55;;;37.38;;
56239;SDS011;42154;51.992;5.896;2022-12-17T10:54:23;72.78;;;37.35;;
56239;SDS011;42154;51.992;5.896;2022-12-17T10:57:32;68.93;;;35.97;;
56239;SDS011;42154;51.992;5.896;2022-12-17T11:03:04;70.30;;;36.88;;
56239;SDS011;42154;51.992;5.896;2022-12-17T11:05:51;71.53;;;37.35;;
56239;SDS011;42154;51.992;5.896;2022-12-17T11:08:38;68.53;;;35.75;;
56239;SDS011;42154;51.992;5.896;2022-12-17T11:11:23;69.57;;;35.90;;
56239;SDS011;42154;51.992;5.896;2022-12-17T11:14:08;80.03;;;40.15;;
56239;SDS011;42154;51.992;5.896;2022-12-17T11:16:55;76.72;;;39.60;;
56239;SDS011;42154;51.992;5.896;2022-12-17T11:19:53;70.28;;;37.58;;
56239;SDS011;42154;51.992;5.896;2022-12-17T11:22:45;76.25;;;38.67;;
56239;SDS011;42154;51.992;5.896;2022-12-17T11:28:38;66.13;;;33.85;;
56239;SDS011;42154;51.992;5.896;2022-12-17T11:37:23;67.18;;;35.35;;
56239;SDS011;42154;51.992;5.896;2022-12-17T11:52:25;64.95;;;34.33;;
56239;SDS011;42154;51.992;5.896;2022-12-17T11:58:41;67.18;;;35.55;;
56239;SDS011;42154;51.992;5.896;2022-12-17T12:07:45;66.78;;;35.13;;
56239;SDS011;42154;51.992;5.896;2022-12-17T12:19:42;75.72;;;40.13;;
56239;SDS011;42154;51.992;5.896;2022-12-17T12:25:39;71.68;;;38.38;;
56239;SDS011;42154;51.992;5.896;2022-12-17T12:28:43;72.53;;;39.05;;
56239;SDS011;42154;51.992;5.896;2022-12-17T12:32:00;73.45;;;39.00;;
56239;SDS011;42154;51.992;5.896;2022-12-17T12:35:02;69.18;;;37.33;;
56239;SDS011;42154;51.992;5.896;2022-12-17T12:37:47;74.50;;;38.65;;
56239;SDS011;42154;51.992;5.896;2022-12-17T12:40:37;66.85;;;36.70;;
56239;SDS011;42154;51.992;5.896;2022-12-17T12:43:30;69.15;;;38.35;;
56239;SDS011;42154;51.992;5.896;2022-12-17T12:47:01;70.18;;;36.45;;
56239;SDS011;42154;51.992;5.896;2022-12-17T12:52:32;68.10;;;36.08;;
56239;SDS011;42154;51.992;5.896;2022-12-17T12:55:16;66.63;;;35.85;;
56239;SDS011;42154;51.992;5.896;2022-12-17T12:58:03;63.90;;;34.55;;
56239;SDS011;42154;51.992;5.896;2022-12-17T13:03:37;62.58;;;34.80;;
56239;SDS011;42154;51.992;5.896;2022-12-17T13:11:48;72.80;;;37.65;;
56239;SDS011;42154;51.992;5.896;2022-12-17T13:21:55;68.00;;;36.40;;
56239;SDS011;42154;51.992;5.896;2022-12-17T13:24:23;68.88;;;36.47;;
56239;SDS011;42154;51.992;5.896;2022-12-17T13:26:50;77.55;;;38.25;;
56239;SDS011;42154;51.992;5.896;2022-12-17T13:29:35;74.88;;;38.58;;
56239;SDS011;42154;51.992;5.896;2022-12-17T13:34:56;59.90;;;30.50;;
56239;SDS011;42154;51.992;5.896;2022-12-17T13:42:47;75.80;;;40.28;;
56239;SDS011;42154;51.992;5.896;2022-12-17T13:45:14;70.80;;;37.75;;
56239;SDS011;42154;51.992;5.896;2022-12-17T13:47:42;72.20;;;36.75;;
56239;SDS011;42154;51.992;5.896;2022-12-17T13:50:18;72.70;;;38.08;;
56239;SDS011;42154;51.992;5.896;2022-12-17T13:52:46;68.05;;;35.85;;
56239;SDS011;42154;51.992;5.896;2022-12-17T13:55:23;66.32;;;35.67;;
56239;SDS011;42154;51.992;5.896;2022-12-17T13:57:53;70.07;;;36.03;;
56239;SDS011;42154;51.992;5.896;2022-12-17T14:02:50;66.10;;;35.35;;
56239;SDS011;42154;51.992;5.896;2022-12-17T14:05:38;67.72;;;34.55;;
56239;SDS011;42154;51.992;5.896;2022-12-17T14:08:07;72.65;;;37.80;;
56239;SDS011;42154;51.992;5.896;2022-12-17T14:10:33;75.43;;;37.95;;
56239;SDS011;42154;51.992;5.896;2022-12-17T14:13:06;74.47;;;39.15;;
56239;SDS011;42154;51.992;5.896;2022-12-17T14:15:34;70.95;;;36.45;;
56239;SDS011;42154;51.992;5.896;2022-12-17T14:18:01;72.25;;;36.95;;
56239;SDS011;42154;51.992;5.896;2022-12-17T14:20:29;74.20;;;38.03;;
56239;SDS011;42154;51.992;5.896;2022-12-17T14:23:02;66.82;;;36.60;;
56239;SDS011;42154;51.992;5.896;2022-12-17T14:25:38;68.85;;;36.58;;
56239;SDS011;42154;51.992;5.896;2022-12-17T14:30:48;58.90;;;28.10;;
56239;SDS011;42154;51.992;5.896;2022-12-17T14:33:23;63.55;;;32.75;;
56239;SDS011;42154;51.992;5.896;2022-12-17T14:35:52;65.93;;;34.85;;
56239;SDS011;42154;51.992;5.896;2022-12-17T14:38:53;72.10;;;36.13;;
56239;SDS011;42154;51.992;5.896;2022-12-17T14:41:21;66.05;;;33.13;;
56239;SDS011;42154;51.992;5.896;2022-12-17T14:44:12;71.03;;;38.03;;
56239;SDS011;42154;51.992;5.896;2022-12-17T14:46:44;71.40;;;37.67;;
56239;SDS011;42154;51.992;5.896;2022-12-17T14:49:11;65.00;;;34.05;;
56239;SDS011;42154;51.992;5.896;2022-12-17T14:51:41;71.60;;;35.95;;
56239;SDS011;42154;51.992;5.896;2022-12-17T14:56:39;65.85;;;33.08;;
56239;SDS011;42154;51.992;5.896;2022-12-17T15:01:54;65.43;;;33.75;;
56239;SDS011;42154;51.992;5.896;2022-12-17T15:04:20;71.30;;;34.50;;
56239;SDS011;42154;51.992;5.896;2022-12-17T15:06:47;66.75;;;34.80;;
56239;SDS011;42154;51.992;5.896;2022-12-17T15:09:14;67.40;;;34.55;;
56239;SDS011;42154;51.992;5.896;2022-12-17T15:11:40;63.65;;;34.15;;
56239;SDS011;42154;51.992;5.896;2022-12-17T15:14:08;64.93;;;33.00;;
56239;SDS011;42154;51.992;5.896;2022-12-17T15:16:33;62.03;;;32.17;;
56239;SDS011;42154;51.992;5.896;2022-12-17T15:18:59;67.82;;;35.42;;
56239;SDS011;42154;51.992;5.896;2022-12-17T15:21:25;65.00;;;33.67;;
56239;SDS011;42154;51.992;5.896;2022-12-17T15:23:51;73.05;;;37.78;;
56239;SDS011;42154;51.992;5.896;2022-12-17T15:26:16;75.13;;;37.35;;
56239;SDS011;42154;51.992;5.896;2022-12-17T15:28:44;74.95;;;37.75;;
56239;SDS011;42154;51.992;5.896;2022-12-17T15:31:10;67.53;;;34.17;;
56239;SDS011;42154;51.992;5.896;2022-12-17T15:33:38;65.18;;;33.63;;
56239;SDS011;42154;51.992;5.896;2022-12-17T15:36:04;73.30;;;36.30;;
56239;SDS011;42154;51.992;5.896;2022-12-17T15:38:31;73.90;;;37.47;;
56239;SDS011;42154;51.992;5.896;2022-12-17T15:40:59;73.90;;;36.70;;
56239;SDS011;42154;51.992;5.896;2022-12-17T15:43:46;76.07;;;39.88;;
56239;SDS011;42154;51.992;5.896;2022-12-17T15:46:12;70.55;;;37.45;;
56239;SDS011;42154;51.992;5.896;2022-12-17T15:48:38;77.03;;;39.17;;
56239;SDS011;42154;51.992;5.896;2022-12-17T15:51:03;75.60;;;38.53;;
56239;SDS011;42154;51.992;5.896;2022-12-17T15:53:29;68.75;;;37.30;;
56239;SDS011;42154;51.992;5.896;2022-12-17T15:55:59;73.05;;;37.75;;
56239;SDS011;42154;51.992;5.896;2022-12-17T15:58:25;66.93;;;34.95;;
56239;SDS011;42154;51.992;5.896;2022-12-17T16:00:51;68.43;;;37.45;;
56239;SDS011;42154;51.992;5.896;2022-12-17T16:03:17;64.90;;;35.13;;
56239;SDS011;42154;51.992;5.896;2022-12-17T16:05:43;71.05;;;36.20;;
56239;SDS011;42154;51.992;5.896;2022-12-17T16:08:08;67.00;;;34.95;;
56239;SDS011;42154;51.992;5.896;2022-12-17T16:10:35;76.55;;;39.42;;
56239;SDS011;42154;51.992;5.896;2022-12-17T16:13:01;72.50;;;36.80;;
56239;SDS011;42154;51.992;5.896;2022-12-17T16:15:26;76.35;;;37.65;;
56239;SDS011;42154;51.992;5.896;2022-12-17T16:17:53;70.18;;;36.75;;
56239;SDS011;42154;51.992;5.896;2022-12-17T16:20:18;68.57;;;36.30;;
56239;SDS011;42154;51.992;5.896;2022-12-17T16:22:44;69.40;;;36.70;;
56239;SDS011;42154;51.992;5.896;2022-12-17T16:25:10;69.88;;;37.40;;
56239;SDS011;42154;51.992;5.896;2022-12-17T16:27:36;63.75;;;35.10;;
56239;SDS011;42154;51.992;5.896;2022-12-17T16:30:02;74.22;;;37.75;;
56239;SDS011;42154;51.992;5.896;2022-12-17T16:32:28;69.55;;;37.42;;
56239;SDS011;42154;51.992;5.896;2022-12-17T16:34:54;67.78;;;37.17;;
56239;SDS011;42154;51.992;5.896;2022-12-17T16:37:20;69.13;;;36.33;;
56239;SDS011;42154;51.992;5.896;2022-12-17T16:39:46;73.00;;;39.95;;
56239;SDS011;42154;51.992;5.896;2022-12-17T16:42:12;68.13;;;36.30;;
56239;SDS011;42154;51.992;5.896;2022-12-17T16:44:38;66.47;;;35.78;;
56239;SDS011;42154;51.992;5.896;2022-12-17T16:47:03;75.20;;;38.85;;
56239;SDS011;42154;51.992;5.896;2022-12-17T16:49:29;64.63;;;35.70;;
56239;SDS011;42154;51.992;5.896;2022-12-17T16:51:55;67.13;;;35.67;;
56239;SDS011;42154;51.992;5.896;2022-12-17T16:54:22;75.53;;;38.60;;
56239;SDS011;42154;51.992;5.896;2022-12-17T16:56:50;62.60;;;34.55;;
56239;SDS011;42154;51.992;5.896;2022-12-17T16:59:16;68.10;;;36.28;;
56239;SDS011;42154;51.992;5.896;2022-12-17T17:01:44;68.47;;;35.90;;
56239;SDS011;42154;51.992;5.896;2022-12-17T17:04:11;68.82;;;35.45;;
56239;SDS011;42154;51.992;5.896;2022-12-17T17:06:39;60.90;;;33.05;;
56239;SDS011;42154;51.992;5.896;2022-12-17T17:09:06;63.53;;;33.17;;
56239;SDS011;42154;51.992;5.896;2022-12-17T17:11:33;72.35;;;37.22;;
56239;SDS011;42154;51.992;5.896;2022-12-17T17:13:59;71.03;;;37.10;;
56239;SDS011;42154;51.992;5.896;2022-12-17T17:16:24;69.68;;;36.40;;
56239;SDS011;42154;51.992;5.896;2022-12-17T17:18:51;73.97;;;37.30;;
56239;SDS011;42154;51.992;5.896;2022-12-17T17:23:43;67.32;;;36.05;;
56239;SDS011;42154;51.992;5.896;2022-12-17T17:26:13;69.75;;;35.45;;
56239;SDS011;42154;51.992;5.896;2022-12-17T17:28:39;62.38;;;33.58;;
56239;SDS011;42154;51.992;5.896;2022-12-17T17:31:07;67.47;;;32.75;;
56239;SDS011;42154;51.992;5.896;2022-12-17T17:33:37;62.22;;;32.40;;
56239;SDS011;42154;51.992;5.896;2022-12-17T17:36:14;68.38;;;35.83;;